sensor_id;sensor_type;location;lat;lon;timestamp;temperature;humidity
46608;DHT22;32330;51.936;7.184;2024-02-21T00:01:23;8.60;99.90
46608;DHT22;32330;51.936;7.184;2024-02-21T00:03:50;8.60;99.90
46608;DHT22;32330;51.936;7.184;2024-02-21T00:06:17;8.60;99.90
46608;DHT22;32330;51.936;7.184;2024-02-21T00:08:44;8.60;99.90
46608;DHT22;32330;51.936;7.184;2024-02-21T00:11:11;8.60;99.90
46608;DHT22;32330;51.936;7.184;2024-02-21T00:13:39;8.60;99.90
46608;DHT22;32330;51.936;7.184;2024-02-21T00:16:06;8.60;99.90
46608;DHT22;32330;51.936;7.184;2024-02-21T00:18:33;8.60;99.90
46608;DHT22;32330;51.936;7.184;2024-02-21T00:21:01;8.60;99.90
46608;DHT22;32330;51.936;7.184;2024-02-21T00:23:28;8.60;99.90
46608;DHT22;32330;51.936;7.184;2024-02-21T00:25:55;8.60;99.90
46608;DHT22;32330;51.936;7.184;2024-02-21T00:28:22;8.60;99.90
46608;DHT22;32330;51.936;7.184;2024-02-21T00:30:51;8.60;99.90
46608;DHT22;32330;51.936;7.184;2024-02-21T00:33:18;8.60;99.90
46608;DHT22;32330;51.936;7.184;2024-02-21T00:35:45;8.60;99.90
46608;DHT22;32330;51.936;7.184;2024-02-21T00:38:12;8.60;99.90
46608;DHT22;32330;51.936;7.184;2024-02-21T00:40:39;8.60;99.90
46608;DHT22;32330;51.936;7.184;2024-02-21T00:43:07;8.70;99.90
46608;DHT22;32330;51.936;7.184;2024-02-21T00:45:34;8.70;99.90
46608;DHT22;32330;51.936;7.184;2024-02-21T00:48:03;8.60;99.90
46608;DHT22;32330;51.936;7.184;2024-02-21T00:50:30;8.70;99.90
46608;DHT22;32330;51.936;7.184;2024-02-21T00:52:58;8.70;99.90
46608;DHT22;32330;51.936;7.184;2024-02-21T00:55:24;8.70;99.90
46608;DHT22;32330;51.936;7.184;2024-02-21T00:57:51;8.70;99.90
46608;DHT22;32330;51.936;7.184;2024-02-21T01:00:19;8.70;99.90
46608;DHT22;32330;51.936;7.184;2024-02-21T01:02:46;8.60;99.90
46608;DHT22;32330;51.936;7.184;2024-02-21T01:05:14;8.70;99.90
46608;DHT22;32330;51.936;7.184;2024-02-21T01:07:41;8.70;99.90
46608;DHT22;32330;51.936;7.184;2024-02-21T01:10:09;8.70;99.90
46608;DHT22;32330;51.936;7.184;2024-02-21T01:12:36;8.70;99.90
46608;DHT22;32330;51.936;7.184;2024-02-21T01:15:04;8.60;99.90
46608;DHT22;32330;51.936;7.184;2024-02-21T01:17:31;8.70;99.90
46608;DHT22;32330;51.936;7.184;2024-02-21T01:19:59;8.70;99.90
46608;DHT22;32330;51.936;7.184;2024-02-21T01:22:27;8.70;99.90
46608;DHT22;32330;51.936;7.184;2024-02-21T01:24:54;8.70;99.90
46608;DHT22;32330;51.936;7.184;2024-02-21T01:27:21;8.70;99.90
46608;DHT22;32330;51.936;7.184;2024-02-21T01:29:48;8.70;99.90
46608;DHT22;32330;51.936;7.184;2024-02-21T01:32:15;8.70;99.90
46608;DHT22;32330;51.936;7.184;2024-02-21T01:34:58;8.70;99.90
46608;DHT22;32330;51.936;7.184;2024-02-21T01:37:26;8.70;99.90
46608;DHT22;32330;51.936;7.184;2024-02-21T01:39:53;8.70;99.90
46608;DHT22;32330;51.936;7.184;2024-02-21T01:42:20;8.80;99.90
46608;DHT22;32330;51.936;7.184;2024-02-21T01:44:47;8.70;99.90
46608;DHT22;32330;51.936;7.184;2024-02-21T01:47:15;8.70;99.90
46608;DHT22;32330;51.936;7.184;2024-02-21T01:49:42;8.80;99.90
46608;DHT22;32330;51.936;7.184;2024-02-21T01:52:30;8.80;99.90
46608;DHT22;32330;51.936;7.184;2024-02-21T01:54:58;8.80;99.90
46608;DHT22;32330;51.936;7.184;2024-02-21T01:57:25;8.70;99.90
46608;DHT22;32330;51.936;7.184;2024-02-21T01:59:52;8.80;99.90
46608;DHT22;32330;51.936;7.184;2024-02-21T02:02:19;8.80;99.90
46608;DHT22;32330;51.936;7.184;2024-02-21T02:04:47;8.80;99.90
46608;DHT22;32330;51.936;7.184;2024-02-21T02:07:14;8.80;99.90
46608;DHT22;32330;51.936;7.184;2024-02-21T02:09:42;8.80;99.90
46608;DHT22;32330;51.936;7.184;2024-02-21T02:12:09;8.80;99.90
46608;DHT22;32330;51.936;7.184;2024-02-21T02:14:36;8.80;99.90
46608;DHT22;32330;51.936;7.184;2024-02-21T02:17:04;8.80;99.90
46608;DHT22;32330;51.936;7.184;2024-02-21T02:19:31;8.80;99.90
46608;DHT22;32330;51.936;7.184;2024-02-21T02:22:05;8.80;99.90
46608;DHT22;32330;51.936;7.184;2024-02-21T02:24:39;8.80;99.90
46608;DHT22;32330;51.936;7.184;2024-02-21T02:27:06;8.70;99.90
46608;DHT22;32330;51.936;7.184;2024-02-21T02:29:33;8.70;99.90
46608;DHT22;32330;51.936;7.184;2024-02-21T02:32:00;8.80;99.90
46608;DHT22;32330;51.936;7.184;2024-02-21T02:34:27;8.70;99.90
46608;DHT22;32330;51.936;7.184;2024-02-21T02:36:56;8.70;99.90
46608;DHT22;32330;51.936;7.184;2024-02-21T02:39:23;8.70;99.90
46608;DHT22;32330;51.936;7.184;2024-02-21T02:41:51;8.80;99.90
46608;DHT22;32330;51.936;7.184;2024-02-21T02:44:18;8.70;99.90
46608;DHT22;32330;51.936;7.184;2024-02-21T02:46:45;8.70;99.90
46608;DHT22;32330;51.936;7.184;2024-02-21T02:49:13;8.70;99.90
46608;DHT22;32330;51.936;7.184;2024-02-21T02:51:41;8.70;99.90
46608;DHT22;32330;51.936;7.184;2024-02-21T02:54:09;8.70;99.90
46608;DHT22;32330;51.936;7.184;2024-02-21T02:56:36;8.70;99.90
46608;DHT22;32330;51.936;7.184;2024-02-21T02:59:04;8.70;99.90
46608;DHT22;32330;51.936;7.184;2024-02-21T03:01:34;8.70;99.90
46608;DHT22;32330;51.936;7.184;2024-02-21T03:04:01;8.70;99.90
46608;DHT22;32330;51.936;7.184;2024-02-21T03:06:28;8.70;99.90
46608;DHT22;32330;51.936;7.184;2024-02-21T03:08:55;8.70;99.90
46608;DHT22;32330;51.936;7.184;2024-02-21T03:11:22;8.70;99.90
46608;DHT22;32330;51.936;7.184;2024-02-21T03:13:54;8.70;99.90
46608;DHT22;32330;51.936;7.184;2024-02-21T03:16:23;8.70;99.90
46608;DHT22;32330;51.936;7.184;2024-02-21T03:18:50;8.70;99.90
46608;DHT22;32330;51.936;7.184;2024-02-21T03:21:17;8.60;99.90
46608;DHT22;32330;51.936;7.184;2024-02-21T03:23:44;8.70;99.90
46608;DHT22;32330;51.936;7.184;2024-02-21T03:26:12;8.70;99.90
46608;DHT22;32330;51.936;7.184;2024-02-21T03:28:42;8.70;99.90
46608;DHT22;32330;51.936;7.184;2024-02-21T03:31:11;8.70;99.90
46608;DHT22;32330;51.936;7.184;2024-02-21T03:33:42;8.70;99.90
46608;DHT22;32330;51.936;7.184;2024-02-21T03:36:13;8.70;99.90
46608;DHT22;32330;51.936;7.184;2024-02-21T03:38:40;8.70;99.90
46608;DHT22;32330;51.936;7.184;2024-02-21T03:41:07;8.70;99.90
46608;DHT22;32330;51.936;7.184;2024-02-21T03:43:34;8.70;99.90
46608;DHT22;32330;51.936;7.184;2024-02-21T03:46:01;8.70;99.90
46608;DHT22;32330;51.936;7.184;2024-02-21T03:48:28;8.70;99.90
46608;DHT22;32330;51.936;7.184;2024-02-21T03:50:57;8.70;99.90
46608;DHT22;32330;51.936;7.184;2024-02-21T03:53:24;8.70;99.90
46608;DHT22;32330;51.936;7.184;2024-02-21T03:55:52;8.70;99.90
46608;DHT22;32330;51.936;7.184;2024-02-21T03:58:19;8.70;99.90
46608;DHT22;32330;51.936;7.184;2024-02-21T04:00:46;8.70;99.90
46608;DHT22;32330;51.936;7.184;2024-02-21T04:03:13;8.70;99.90
46608;DHT22;32330;51.936;7.184;2024-02-21T04:05:40;8.70;99.90
46608;DHT22;32330;51.936;7.184;2024-02-21T04:08:09;8.70;99.90
46608;DHT22;32330;51.936;7.184;2024-02-21T04:10:36;8.70;99.90
46608;DHT22;32330;51.936;7.184;2024-02-21T04:13:04;8.70;99.90
46608;DHT22;32330;51.936;7.184;2024-02-21T04:15:31;8.70;99.90
46608;DHT22;32330;51.936;7.184;2024-02-21T04:17:59;8.70;99.90
46608;DHT22;32330;51.936;7.184;2024-02-21T04:20:26;8.70;99.90
46608;DHT22;32330;51.936;7.184;2024-02-21T04:22:54;8.70;99.90
46608;DHT22;32330;51.936;7.184;2024-02-21T04:25:22;8.70;99.90
46608;DHT22;32330;51.936;7.184;2024-02-21T04:27:49;8.70;99.90
46608;DHT22;32330;51.936;7.184;2024-02-21T04:30:17;8.70;99.90
46608;DHT22;32330;51.936;7.184;2024-02-21T04:32:44;8.70;99.90
46608;DHT22;32330;51.936;7.184;2024-02-21T04:35:11;8.70;99.90
46608;DHT22;32330;51.936;7.184;2024-02-21T04:37:38;8.70;99.90
46608;DHT22;32330;51.936;7.184;2024-02-21T04:40:07;8.70;99.90
46608;DHT22;32330;51.936;7.184;2024-02-21T04:42:36;8.70;99.90
46608;DHT22;32330;51.936;7.184;2024-02-21T04:45:03;8.80;99.90
46608;DHT22;32330;51.936;7.184;2024-02-21T04:47:31;8.70;99.90
46608;DHT22;32330;51.936;7.184;2024-02-21T04:49:58;8.70;99.90
46608;DHT22;32330;51.936;7.184;2024-02-21T04:52:25;8.70;99.90
46608;DHT22;32330;51.936;7.184;2024-02-21T04:54:52;8.80;99.90
46608;DHT22;32330;51.936;7.184;2024-02-21T04:57:19;8.70;99.90
46608;DHT22;32330;51.936;7.184;2024-02-21T04:59:47;8.70;99.90
46608;DHT22;32330;51.936;7.184;2024-02-21T05:02:14;8.70;99.90
46608;DHT22;32330;51.936;7.184;2024-02-21T05:04:42;8.70;99.90
46608;DHT22;32330;51.936;7.184;2024-02-21T05:07:09;8.80;99.90
46608;DHT22;32330;51.936;7.184;2024-02-21T05:09:37;8.70;99.90
46608;DHT22;32330;51.936;7.184;2024-02-21T05:12:05;8.70;99.90
46608;DHT22;32330;51.936;7.184;2024-02-21T05:14:32;8.70;99.90
46608;DHT22;32330;51.936;7.184;2024-02-21T05:17:00;8.70;99.90
46608;DHT22;32330;51.936;7.184;2024-02-21T05:19:27;8.70;99.90
46608;DHT22;32330;51.936;7.184;2024-02-21T05:21:55;8.70;99.90
46608;DHT22;32330;51.936;7.184;2024-02-21T05:24:22;8.70;99.90
46608;DHT22;32330;51.936;7.184;2024-02-21T05:26:53;8.80;99.90
46608;DHT22;32330;51.936;7.184;2024-02-21T05:29:20;8.70;99.90
46608;DHT22;32330;51.936;7.184;2024-02-21T05:31:57;8.70;99.90
46608;DHT22;32330;51.936;7.184;2024-02-21T05:34:26;8.70;99.90
46608;DHT22;32330;51.936;7.184;2024-02-21T05:36:53;8.70;99.90
46608;DHT22;32330;51.936;7.184;2024-02-21T05:39:20;8.70;99.90
46608;DHT22;32330;51.936;7.184;2024-02-21T05:41:48;8.70;99.90
46608;DHT22;32330;51.936;7.184;2024-02-21T05:44:16;8.70;99.90
46608;DHT22;32330;51.936;7.184;2024-02-21T05:46:43;8.70;99.90
46608;DHT22;32330;51.936;7.184;2024-02-21T05:49:11;8.60;99.90
46608;DHT22;32330;51.936;7.184;2024-02-21T05:51:39;8.60;99.90
46608;DHT22;32330;51.936;7.184;2024-02-21T05:54:06;8.60;99.90
46608;DHT22;32330;51.936;7.184;2024-02-21T05:56:37;8.60;99.90
46608;DHT22;32330;51.936;7.184;2024-02-21T05:59:04;8.60;99.90
46608;DHT22;32330;51.936;7.184;2024-02-21T06:01:31;8.70;99.90
46608;DHT22;32330;51.936;7.184;2024-02-21T06:03:58;8.70;99.90
46608;DHT22;32330;51.936;7.184;2024-02-21T06:06:25;8.70;99.90
46608;DHT22;32330;51.936;7.184;2024-02-21T06:08:54;8.70;99.90
46608;DHT22;32330;51.936;7.184;2024-02-21T06:15:05;8.70;99.90
46608;DHT22;32330;51.936;7.184;2024-02-21T06:17:32;8.60;99.90
46608;DHT22;32330;51.936;7.184;2024-02-21T06:19:59;8.60;99.90
46608;DHT22;32330;51.936;7.184;2024-02-21T06:22:30;8.60;99.90
46608;DHT22;32330;51.936;7.184;2024-02-21T06:24:59;8.60;99.90
46608;DHT22;32330;51.936;7.184;2024-02-21T06:27:26;8.60;99.90
46608;DHT22;32330;51.936;7.184;2024-02-21T06:29:53;8.60;99.90
46608;DHT22;32330;51.936;7.184;2024-02-21T06:32:20;8.60;99.90
46608;DHT22;32330;51.936;7.184;2024-02-21T06:34:47;8.60;99.90
46608;DHT22;32330;51.936;7.184;2024-02-21T06:37:14;8.70;99.90
46608;DHT22;32330;51.936;7.184;2024-02-21T06:39:41;8.60;99.90
46608;DHT22;32330;51.936;7.184;2024-02-21T06:42:11;8.60;99.90
46608;DHT22;32330;51.936;7.184;2024-02-21T06:44:38;8.60;99.90
46608;DHT22;32330;51.936;7.184;2024-02-21T06:47:06;8.60;99.90
46608;DHT22;32330;51.936;7.184;2024-02-21T06:49:34;8.60;99.90
46608;DHT22;32330;51.936;7.184;2024-02-21T06:52:03;8.70;99.90
46608;DHT22;32330;51.936;7.184;2024-02-21T06:54:30;8.60;99.90
46608;DHT22;32330;51.936;7.184;2024-02-21T06:56:57;8.60;99.90
46608;DHT22;32330;51.936;7.184;2024-02-21T06:59:26;8.70;99.90
46608;DHT22;32330;51.936;7.184;2024-02-21T07:01:54;8.70;99.90
46608;DHT22;32330;51.936;7.184;2024-02-21T07:04:22;8.70;99.90
46608;DHT22;32330;51.936;7.184;2024-02-21T07:06:49;8.70;99.90
46608;DHT22;32330;51.936;7.184;2024-02-21T07:09:16;8.70;99.90
46608;DHT22;32330;51.936;7.184;2024-02-21T07:11:43;8.70;99.90
46608;DHT22;32330;51.936;7.184;2024-02-21T07:14:10;8.70;99.90
46608;DHT22;32330;51.936;7.184;2024-02-21T07:16:39;8.70;99.90
46608;DHT22;32330;51.936;7.184;2024-02-21T07:19:06;8.70;99.90
46608;DHT22;32330;51.936;7.184;2024-02-21T07:21:33;8.70;99.90
46608;DHT22;32330;51.936;7.184;2024-02-21T07:24:00;8.70;99.90
46608;DHT22;32330;51.936;7.184;2024-02-21T07:26:27;8.70;99.90
46608;DHT22;32330;51.936;7.184;2024-02-21T07:28:54;8.70;99.90
46608;DHT22;32330;51.936;7.184;2024-02-21T07:31:21;8.70;99.90
46608;DHT22;32330;51.936;7.184;2024-02-21T07:33:50;8.70;99.90
46608;DHT22;32330;51.936;7.184;2024-02-21T07:36:27;8.80;99.90
46608;DHT22;32330;51.936;7.184;2024-02-21T07:38:54;8.90;99.90
46608;DHT22;32330;51.936;7.184;2024-02-21T07:41:22;8.80;99.90
46608;DHT22;32330;51.936;7.184;2024-02-21T07:43:49;8.80;99.90
46608;DHT22;32330;51.936;7.184;2024-02-21T07:46:16;8.90;99.90
46608;DHT22;32330;51.936;7.184;2024-02-21T07:48:43;8.90;99.90
46608;DHT22;32330;51.936;7.184;2024-02-21T07:51:13;8.90;99.90
46608;DHT22;32330;51.936;7.184;2024-02-21T07:53:40;9.00;99.90
46608;DHT22;32330;51.936;7.184;2024-02-21T07:56:10;8.90;99.90
46608;DHT22;32330;51.936;7.184;2024-02-21T07:58:37;8.90;99.90
46608;DHT22;32330;51.936;7.184;2024-02-21T08:01:04;9.00;99.90
46608;DHT22;32330;51.936;7.184;2024-02-21T08:03:31;9.00;99.90
46608;DHT22;32330;51.936;7.184;2024-02-21T08:05:58;9.00;99.90
46608;DHT22;32330;51.936;7.184;2024-02-21T08:08:27;9.00;99.90
46608;DHT22;32330;51.936;7.184;2024-02-21T08:10:54;9.00;99.90
46608;DHT22;32330;51.936;7.184;2024-02-21T08:13:21;9.10;99.90
46608;DHT22;32330;51.936;7.184;2024-02-21T08:15:48;9.10;99.90
46608;DHT22;32330;51.936;7.184;2024-02-21T08:18:15;9.10;99.90
46608;DHT22;32330;51.936;7.184;2024-02-21T08:20:42;9.10;99.90
46608;DHT22;32330;51.936;7.184;2024-02-21T08:23:09;9.20;99.90
46608;DHT22;32330;51.936;7.184;2024-02-21T08:25:37;9.20;99.90
46608;DHT22;32330;51.936;7.184;2024-02-21T08:28:05;9.20;99.90
46608;DHT22;32330;51.936;7.184;2024-02-21T08:30:33;9.20;99.90
46608;DHT22;32330;51.936;7.184;2024-02-21T08:33:00;9.20;99.90
46608;DHT22;32330;51.936;7.184;2024-02-21T08:35:27;9.20;99.90
46608;DHT22;32330;51.936;7.184;2024-02-21T08:37:54;9.30;99.90
46608;DHT22;32330;51.936;7.184;2024-02-21T08:40:21;9.30;99.90
46608;DHT22;32330;51.936;7.184;2024-02-21T08:42:49;9.40;99.90
46608;DHT22;32330;51.936;7.184;2024-02-21T08:45:17;9.40;99.90
46608;DHT22;32330;51.936;7.184;2024-02-21T08:47:44;9.40;99.90
46608;DHT22;32330;51.936;7.184;2024-02-21T08:50:12;9.40;99.90
46608;DHT22;32330;51.936;7.184;2024-02-21T08:52:39;9.50;99.90
46608;DHT22;32330;51.936;7.184;2024-02-21T08:55:06;9.50;99.90
46608;DHT22;32330;51.936;7.184;2024-02-21T08:57:33;9.50;99.90
46608;DHT22;32330;51.936;7.184;2024-02-21T09:00:05;9.50;99.90
46608;DHT22;32330;51.936;7.184;2024-02-21T09:02:36;9.50;99.90
46608;DHT22;32330;51.936;7.184;2024-02-21T09:05:04;9.50;99.90
46608;DHT22;32330;51.936;7.184;2024-02-21T09:07:32;9.50;99.90
46608;DHT22;32330;51.936;7.184;2024-02-21T09:09:59;9.50;99.90
46608;DHT22;32330;51.936;7.184;2024-02-21T09:12:26;9.50;99.90
46608;DHT22;32330;51.936;7.184;2024-02-21T09:14:53;9.60;99.90
46608;DHT22;32330;51.936;7.184;2024-02-21T09:17:22;9.60;99.90
46608;DHT22;32330;51.936;7.184;2024-02-21T09:19:50;9.70;99.90
46608;DHT22;32330;51.936;7.184;2024-02-21T09:22:18;9.60;99.90
46608;DHT22;32330;51.936;7.184;2024-02-21T09:24:45;9.70;99.90
46608;DHT22;32330;51.936;7.184;2024-02-21T09:27:13;9.70;99.90
46608;DHT22;32330;51.936;7.184;2024-02-21T09:29:40;9.80;99.90
46608;DHT22;32330;51.936;7.184;2024-02-21T09:32:07;9.80;99.90
46608;DHT22;32330;51.936;7.184;2024-02-21T09:34:35;9.70;99.90
46608;DHT22;32330;51.936;7.184;2024-02-21T09:37:02;9.80;99.90
46608;DHT22;32330;51.936;7.184;2024-02-21T09:39:30;9.80;99.90
46608;DHT22;32330;51.936;7.184;2024-02-21T09:42:01;9.90;99.90
46608;DHT22;32330;51.936;7.184;2024-02-21T09:44:35;9.90;99.90
46608;DHT22;32330;51.936;7.184;2024-02-21T09:47:04;9.90;99.90
46608;DHT22;32330;51.936;7.184;2024-02-21T09:49:35;9.90;99.90
46608;DHT22;32330;51.936;7.184;2024-02-21T09:52:05;9.90;99.90
46608;DHT22;32330;51.936;7.184;2024-02-21T09:54:33;10.00;99.90
46608;DHT22;32330;51.936;7.184;2024-02-21T09:57:00;10.10;99.90
46608;DHT22;32330;51.936;7.184;2024-02-21T09:59:28;10.10;99.90
46608;DHT22;32330;51.936;7.184;2024-02-21T10:01:56;10.10;99.90
46608;DHT22;32330;51.936;7.184;2024-02-21T10:04:26;10.10;99.90
46608;DHT22;32330;51.936;7.184;2024-02-21T10:06:55;10.10;99.90
46608;DHT22;32330;51.936;7.184;2024-02-21T10:09:23;10.20;99.90
46608;DHT22;32330;51.936;7.184;2024-02-21T10:11:50;10.20;99.90
46608;DHT22;32330;51.936;7.184;2024-02-21T10:14:17;10.20;99.90
46608;DHT22;32330;51.936;7.184;2024-02-21T10:16:46;10.20;99.90
46608;DHT22;32330;51.936;7.184;2024-02-21T10:19:17;10.20;99.90
46608;DHT22;32330;51.936;7.184;2024-02-21T10:22:02;10.20;99.90
46608;DHT22;32330;51.936;7.184;2024-02-21T10:24:30;10.10;99.90
46608;DHT22;32330;51.936;7.184;2024-02-21T10:27:05;10.00;99.90
46608;DHT22;32330;51.936;7.184;2024-02-21T10:29:34;10.00;99.90
46608;DHT22;32330;51.936;7.184;2024-02-21T10:32:05;10.00;99.90
46608;DHT22;32330;51.936;7.184;2024-02-21T10:34:33;10.10;99.90
46608;DHT22;32330;51.936;7.184;2024-02-21T10:37:02;10.10;99.90
46608;DHT22;32330;51.936;7.184;2024-02-21T10:39:31;10.10;99.90
46608;DHT22;32330;51.936;7.184;2024-02-21T10:42:00;10.10;99.90
46608;DHT22;32330;51.936;7.184;2024-02-21T10:44:29;10.10;99.90
46608;DHT22;32330;51.936;7.184;2024-02-21T10:46:57;10.20;99.90
46608;DHT22;32330;51.936;7.184;2024-02-21T10:49:25;10.20;99.90
46608;DHT22;32330;51.936;7.184;2024-02-21T10:51:58;10.20;99.90
46608;DHT22;32330;51.936;7.184;2024-02-21T10:54:44;10.10;99.20
46608;DHT22;32330;51.936;7.184;2024-02-21T10:57:13;10.10;99.90
46608;DHT22;32330;51.936;7.184;2024-02-21T10:59:41;10.10;98.00
46608;DHT22;32330;51.936;7.184;2024-02-21T11:02:09;10.10;99.40
46608;DHT22;32330;51.936;7.184;2024-02-21T11:04:36;10.10;99.90
46608;DHT22;32330;51.936;7.184;2024-02-21T11:07:05;10.00;98.30
46608;DHT22;32330;51.936;7.184;2024-02-21T11:09:33;10.00;99.90
46608;DHT22;32330;51.936;7.184;2024-02-21T11:12:02;9.90;99.90
46608;DHT22;32330;51.936;7.184;2024-02-21T11:14:30;9.90;99.90
46608;DHT22;32330;51.936;7.184;2024-02-21T11:16:58;9.90;99.90
46608;DHT22;32330;51.936;7.184;2024-02-21T11:19:27;10.00;99.90
46608;DHT22;32330;51.936;7.184;2024-02-21T11:21:55;10.00;99.90
46608;DHT22;32330;51.936;7.184;2024-02-21T11:24:26;9.90;99.90
46608;DHT22;32330;51.936;7.184;2024-02-21T11:26:54;9.80;99.90
46608;DHT22;32330;51.936;7.184;2024-02-21T11:29:26;9.90;99.90
46608;DHT22;32330;51.936;7.184;2024-02-21T11:31:55;9.90;99.90
46608;DHT22;32330;51.936;7.184;2024-02-21T11:34:22;9.90;99.90
46608;DHT22;32330;51.936;7.184;2024-02-21T11:36:50;10.00;99.90
46608;DHT22;32330;51.936;7.184;2024-02-21T11:39:21;10.00;99.90
46608;DHT22;32330;51.936;7.184;2024-02-21T11:42:00;10.00;99.90
46608;DHT22;32330;51.936;7.184;2024-02-21T11:44:29;10.10;99.40
46608;DHT22;32330;51.936;7.184;2024-02-21T11:46:56;10.10;98.30
46608;DHT22;32330;51.936;7.184;2024-02-21T11:49:25;10.00;99.90
46608;DHT22;32330;51.936;7.184;2024-02-21T11:51:58;10.00;99.90
46608;DHT22;32330;51.936;7.184;2024-02-21T11:54:26;10.00;98.30
46608;DHT22;32330;51.936;7.184;2024-02-21T11:56:53;10.10;96.80
46608;DHT22;32330;51.936;7.184;2024-02-21T11:59:20;10.10;97.00
46608;DHT22;32330;51.936;7.184;2024-02-21T12:01:49;10.10;94.10
46608;DHT22;32330;51.936;7.184;2024-02-21T12:04:18;10.10;94.70
46608;DHT22;32330;51.936;7.184;2024-02-21T12:06:46;10.10;93.90
46608;DHT22;32330;51.936;7.184;2024-02-21T12:09:14;10.10;92.90
46608;DHT22;32330;51.936;7.184;2024-02-21T12:11:41;10.20;94.40
46608;DHT22;32330;51.936;7.184;2024-02-21T12:14:09;10.20;92.00
46608;DHT22;32330;51.936;7.184;2024-02-21T12:16:36;10.30;90.40
46608;DHT22;32330;51.936;7.184;2024-02-21T12:19:05;10.30;85.60
46608;DHT22;32330;51.936;7.184;2024-02-21T12:21:33;10.40;88.10
46608;DHT22;32330;51.936;7.184;2024-02-21T12:24:12;10.40;79.20
46608;DHT22;32330;51.936;7.184;2024-02-21T12:26:39;10.40;80.30
46608;DHT22;32330;51.936;7.184;2024-02-21T12:29:07;10.50;81.00
46608;DHT22;32330;51.936;7.184;2024-02-21T12:31:35;10.50;72.00
46608;DHT22;32330;51.936;7.184;2024-02-21T12:34:02;10.60;75.70
46608;DHT22;32330;51.936;7.184;2024-02-21T12:36:31;10.60;78.80
46608;DHT22;32330;51.936;7.184;2024-02-21T12:38:58;10.60;71.60
46608;DHT22;32330;51.936;7.184;2024-02-21T12:41:26;10.60;69.90
46608;DHT22;32330;51.936;7.184;2024-02-21T12:43:53;10.60;66.80
46608;DHT22;32330;51.936;7.184;2024-02-21T12:46:20;10.60;60.40
46608;DHT22;32330;51.936;7.184;2024-02-21T12:48:47;10.70;74.70
46608;DHT22;32330;51.936;7.184;2024-02-21T12:51:14;10.80;75.30
46608;DHT22;32330;51.936;7.184;2024-02-21T12:53:48;10.80;64.90
46608;DHT22;32330;51.936;7.184;2024-02-21T12:56:15;10.80;69.70
46608;DHT22;32330;51.936;7.184;2024-02-21T12:58:42;10.80;58.80
46608;DHT22;32330;51.936;7.184;2024-02-21T13:01:10;10.80;65.00
46608;DHT22;32330;51.936;7.184;2024-02-21T13:03:37;10.90;63.30
46608;DHT22;32330;51.936;7.184;2024-02-21T13:06:05;10.80;51.10
46608;DHT22;32330;51.936;7.184;2024-02-21T13:08:32;10.80;49.60
46608;DHT22;32330;51.936;7.184;2024-02-21T13:11:02;10.80;54.30
46608;DHT22;32330;51.936;7.184;2024-02-21T13:13:29;10.80;56.50
46608;DHT22;32330;51.936;7.184;2024-02-21T13:15:57;10.80;55.20
46608;DHT22;32330;51.936;7.184;2024-02-21T13:18:24;10.90;56.60
46608;DHT22;32330;51.936;7.184;2024-02-21T13:20:51;10.90;56.00
46608;DHT22;32330;51.936;7.184;2024-02-21T13:23:18;10.90;49.10
46608;DHT22;32330;51.936;7.184;2024-02-21T13:25:47;10.90;46.80
46608;DHT22;32330;51.936;7.184;2024-02-21T13:28:16;10.90;48.00
46608;DHT22;32330;51.936;7.184;2024-02-21T13:30:43;11.00;36.40
46608;DHT22;32330;51.936;7.184;2024-02-21T13:33:11;11.00;39.20
46608;DHT22;32330;51.936;7.184;2024-02-21T13:35:38;11.10;43.40
46608;DHT22;32330;51.936;7.184;2024-02-21T13:38:05;11.10;35.80
46608;DHT22;32330;51.936;7.184;2024-02-21T13:40:33;11.20;41.50
46608;DHT22;32330;51.936;7.184;2024-02-21T13:43:00;11.20;25.80
46608;DHT22;32330;51.936;7.184;2024-02-21T13:45:29;11.10;24.90
46608;DHT22;32330;51.936;7.184;2024-02-21T13:47:57;11.00;16.90
46608;DHT22;32330;51.936;7.184;2024-02-21T13:50:30;11.00;10.10
46608;DHT22;32330;51.936;7.184;2024-02-21T13:52:57;11.00;1.00
46608;DHT22;32330;51.936;7.184;2024-02-21T13:55:24;11.00;7.30
46608;DHT22;32330;51.936;7.184;2024-02-21T13:57:52;11.00;2.70
46608;DHT22;32330;51.936;7.184;2024-02-21T14:00:19;11.10;1.40
46608;DHT22;32330;51.936;7.184;2024-02-21T14:02:48;11.10;4.10
46608;DHT22;32330;51.936;7.184;2024-02-21T14:05:15;11.10;15.00
46608;DHT22;32330;51.936;7.184;2024-02-21T14:07:42;11.00;20.00
46608;DHT22;32330;51.936;7.184;2024-02-21T14:10:09;11.10;20.10
46608;DHT22;32330;51.936;7.184;2024-02-21T14:12:36;11.10;12.70
46608;DHT22;32330;51.936;7.184;2024-02-21T14:15:04;11.10;2.10
46608;DHT22;32330;51.936;7.184;2024-02-21T14:17:32;11.00;1.00
46608;DHT22;32330;51.936;7.184;2024-02-21T14:20:00;11.20;8.60
46608;DHT22;32330;51.936;7.184;2024-02-21T14:22:27;11.20;1.00
46608;DHT22;32330;51.936;7.184;2024-02-21T14:24:54;11.20;1.00
46608;DHT22;32330;51.936;7.184;2024-02-21T14:27:22;11.20;99.90
46608;DHT22;32330;51.936;7.184;2024-02-21T14:29:49;11.20;99.90
46608;DHT22;32330;51.936;7.184;2024-02-21T14:32:16;11.30;99.90
46608;DHT22;32330;51.936;7.184;2024-02-21T14:34:44;11.20;99.90
46608;DHT22;32330;51.936;7.184;2024-02-21T14:37:12;11.20;99.90
46608;DHT22;32330;51.936;7.184;2024-02-21T14:39:39;11.20;99.90
46608;DHT22;32330;51.936;7.184;2024-02-21T14:42:06;11.30;99.90
46608;DHT22;32330;51.936;7.184;2024-02-21T14:44:35;11.20;99.90
46608;DHT22;32330;51.936;7.184;2024-02-21T14:47:03;11.30;99.90
46608;DHT22;32330;51.936;7.184;2024-02-21T14:49:30;11.20;99.90
46608;DHT22;32330;51.936;7.184;2024-02-21T14:51:57;11.20;99.90
46608;DHT22;32330;51.936;7.184;2024-02-21T14:54:25;11.20;99.90
46608;DHT22;32330;51.936;7.184;2024-02-21T14:56:53;11.20;99.90
46608;DHT22;32330;51.936;7.184;2024-02-21T14:59:20;11.30;99.90
46608;DHT22;32330;51.936;7.184;2024-02-21T15:01:47;11.30;99.90
46608;DHT22;32330;51.936;7.184;2024-02-21T15:04:15;11.20;99.90
46608;DHT22;32330;51.936;7.184;2024-02-21T15:06:42;11.20;99.90
46608;DHT22;32330;51.936;7.184;2024-02-21T15:09:10;11.20;99.90
46608;DHT22;32330;51.936;7.184;2024-02-21T15:11:39;11.10;99.90
46608;DHT22;32330;51.936;7.184;2024-02-21T15:14:08;11.10;99.90
46608;DHT22;32330;51.936;7.184;2024-02-21T15:16:36;11.10;99.90
46608;DHT22;32330;51.936;7.184;2024-02-21T15:19:03;11.10;99.90
46608;DHT22;32330;51.936;7.184;2024-02-21T15:21:30;11.10;99.90
46608;DHT22;32330;51.936;7.184;2024-02-21T15:23:58;11.10;99.90
46608;DHT22;32330;51.936;7.184;2024-02-21T15:26:26;11.10;99.90
46608;DHT22;32330;51.936;7.184;2024-02-21T15:28:55;11.10;99.90
46608;DHT22;32330;51.936;7.184;2024-02-21T15:31:23;11.00;99.90
46608;DHT22;32330;51.936;7.184;2024-02-21T15:33:52;11.00;99.90
46608;DHT22;32330;51.936;7.184;2024-02-21T15:36:19;11.00;99.90
46608;DHT22;32330;51.936;7.184;2024-02-21T15:38:47;11.00;99.90
46608;DHT22;32330;51.936;7.184;2024-02-21T15:41:14;11.00;99.90
46608;DHT22;32330;51.936;7.184;2024-02-21T15:43:41;10.90;99.90
46608;DHT22;32330;51.936;7.184;2024-02-21T15:46:12;11.00;99.90
46608;DHT22;32330;51.936;7.184;2024-02-21T15:48:39;11.00;99.90